Terminal Aerodrome Forecast
Issued by NWS Cleveland, OH

Home | Current Version | Previous Version | Graphics & Text | Print | Product List | Glossary On
Versions: 1 2 3 4 5 6 7 8 9 10 11 12 13 14 15 16 17 18 19 20 21 22 23 24 25
000
FTUS41 KCLE 300500
TAFERI
TAF
KERI 300520Z 3006/3106 21018G28KT P6SM OVC035
      TEMPO 3006/3008 6SM -SHRASN OVC020
     FM300800 23018G28KT P6SM OVC025
      TEMPO 3008/3012 6SM -SHRASN OVC015
     FM301400 25015G25KT P6SM BKN045 OVC120
     FM302000 26015G25KT P6SM SCT045 BKN250
     FM310000 26007KT P6SM SCT120 BKN250
     FM310400 20004KT P6SM OVC120=

USA.gov is the U.S. government's official web portal to all federal, state and local government web resources and services.